createdAt,value
2019-03-13T00:00:03.902Z,4.30
2019-03-13T00:00:35.103Z,4.31
2019-03-13T00:01:06.302Z,4.30
2019-03-13T00:01:37.498Z,4.30
2019-03-13T00:02:08.701Z,4.30
2019-03-13T00:02:39.932Z,4.30
2019-03-13T00:03:11.131Z,4.31
2019-03-13T00:03:42.329Z,4.32
2019-03-13T00:04:13.530Z,4.33
2019-03-13T00:04:44.732Z,4.32
2019-03-13T00:05:15.939Z,4.31
2019-03-13T00:05:47.142Z,4.29
2019-03-13T00:06:18.357Z,4.32
2019-03-13T00:06:49.611Z,4.34
2019-03-13T00:07:20.831Z,4.36
2019-03-13T00:07:52.032Z,4.39
2019-03-13T00:08:23.278Z,4.41
2019-03-13T00:08:54.481Z,4.41
2019-03-13T00:09:25.705Z,4.43
2019-03-13T00:09:56.896Z,4.43
2019-03-13T00:10:28.113Z,4.46
2019-03-13T00:10:59.302Z,4.48
2019-03-13T00:11:30.534Z,4.49
2019-03-13T00:12:01.767Z,4.51
2019-03-13T00:12:32.958Z,4.51
2019-03-13T00:13:04.156Z,4.51
2019-03-13T00:13:35.358Z,4.49
2019-03-13T00:14:06.598Z,4.47
2019-03-13T00:14:37.814Z,4.48
2019-03-13T00:15:09.016Z,4.48
2019-03-13T00:15:40.215Z,4.51
2019-03-13T00:16:11.463Z,4.51
2019-03-13T00:16:42.666Z,4.51
2019-03-13T00:17:13.868Z,4.52
2019-03-13T00:17:45.062Z,4.54
2019-03-13T00:18:16.266Z,4.55
2019-03-13T00:18:47.496Z,4.56
2019-03-13T00:19:18.703Z,4.57
2019-03-13T00:19:49.924Z,4.59
2019-03-13T00:20:21.181Z,4.59
2019-03-13T00:20:52.392Z,4.59
2019-03-13T00:21:23.605Z,4.59
2019-03-13T00:21:54.806Z,4.61
2019-03-13T00:22:26.018Z,4.62
2019-03-13T00:22:57.253Z,4.63
2019-03-13T00:23:28.445Z,4.65
2019-03-13T00:23:59.712Z,4.64
2019-03-13T00:24:30.917Z,4.65
2019-03-13T00:25:02.141Z,4.66
2019-03-13T00:25:33.334Z,4.67
2019-03-13T00:26:04.529Z,4.68
2019-03-13T00:26:35.727Z,4.68
2019-03-13T00:27:06.935Z,4.70
2019-03-13T00:27:38.159Z,4.71
2019-03-13T00:28:09.322Z,4.69
2019-03-13T00:28:40.514Z,4.68
2019-03-13T00:29:11.750Z,4.66
2019-03-13T00:29:42.954Z,4.64
2019-03-13T00:30:14.167Z,4.66
2019-03-13T00:30:45.374Z,4.68
2019-03-13T00:31:16.619Z,4.69
2019-03-13T00:31:47.826Z,4.69
2019-03-13T00:32:19.050Z,4.69
2019-03-13T00:32:50.257Z,4.69
2019-03-13T00:33:21.458Z,4.69
2019-03-13T00:33:52.679Z,4.68
2019-03-13T00:34:23.862Z,4.69
2019-03-13T00:34:55.056Z,4.69
2019-03-13T00:35:26.257Z,4.71
2019-03-13T00:35:57.501Z,4.73
2019-03-13T00:36:28.771Z,4.74
2019-03-13T00:36:59.927Z,4.74
2019-03-13T00:37:31.129Z,4.73
2019-03-13T00:38:02.334Z,4.72
2019-03-13T00:38:33.529Z,4.69
2019-03-13T00:39:04.768Z,4.70
2019-03-13T00:39:35.974Z,4.69
2019-03-13T00:40:07.165Z,4.67
2019-03-13T00:40:38.401Z,4.68
2019-03-13T00:41:09.613Z,4.67
2019-03-13T00:41:40.855Z,4.66
2019-03-13T00:42:12.051Z,4.65
2019-03-13T00:42:43.240Z,4.67
2019-03-13T00:43:14.437Z,4.64
2019-03-13T00:43:45.635Z,4.65
2019-03-13T00:44:16.859Z,4.63
2019-03-13T00:44:48.074Z,4.62
2019-03-13T00:45:19.441Z,4.62
2019-03-13T00:45:50.649Z,4.64
2019-03-13T00:46:21.868Z,4.65
2019-03-13T00:46:53.090Z,4.68
2019-03-13T00:47:24.292Z,4.68
2019-03-13T00:47:55.500Z,4.68
2019-03-13T00:48:26.693Z,4.67
2019-03-13T00:48:57.887Z,4.68
2019-03-13T00:49:29.100Z,4.67
2019-03-13T00:50:00.401Z,4.70
2019-03-13T00:50:31.629Z,4.72
2019-03-13T00:51:02.820Z,4.73
2019-03-13T00:51:36.822Z,4.74
2019-03-13T00:52:06.955Z,4.77
2019-03-13T00:52:38.206Z,4.87
2019-03-13T00:53:09.463Z,4.93
2019-03-13T00:53:40.663Z,4.96
2019-03-13T00:54:11.873Z,5.00
2019-03-13T00:54:43.079Z,5.00
2019-03-13T00:55:14.294Z,5.00
2019-03-13T00:55:45.567Z,5.00
2019-03-13T00:56:16.759Z,5.04
2019-03-13T00:56:47.969Z,5.05
2019-03-13T00:57:19.183Z,5.06
2019-03-13T00:57:50.369Z,5.06
2019-03-13T00:58:21.597Z,5.06
2019-03-13T00:58:52.801Z,5.05
2019-03-13T00:59:24.003Z,5.05
2019-03-13T00:59:55.210Z,5.05
2019-03-13T01:00:26.396Z,5.05
2019-03-13T01:00:57.635Z,5.05
2019-03-13T01:01:28.848Z,5.06
2019-03-13T01:02:00.050Z,5.05
2019-03-13T01:02:31.260Z,5.03
2019-03-13T01:03:02.476Z,5.02
2019-03-13T01:03:33.670Z,5.03
2019-03-13T01:04:04.958Z,5.04
2019-03-13T01:04:36.213Z,5.02
2019-03-13T01:05:07.399Z,5.03
2019-03-13T01:05:38.597Z,5.04
2019-03-13T01:06:09.781Z,5.05
2019-03-13T01:06:41.013Z,5.08
2019-03-13T01:07:12.214Z,5.07
2019-03-13T01:07:43.430Z,5.07
2019-03-13T01:08:14.614Z,5.07
2019-03-13T01:08:45.816Z,5.05
2019-03-13T01:09:17.031Z,5.04
2019-03-13T01:09:48.266Z,5.02
2019-03-13T01:10:19.462Z,5.00
2019-03-13T01:10:50.672Z,4.99
2019-03-13T01:11:21.868Z,4.99
2019-03-13T01:11:53.073Z,4.99
2019-03-13T01:12:24.272Z,4.97
2019-03-13T01:12:55.465Z,4.94
2019-03-13T01:13:26.653Z,4.91
2019-03-13T01:13:57.848Z,4.91
2019-03-13T01:14:29.082Z,4.92
2019-03-13T01:15:00.489Z,4.92
2019-03-13T01:15:31.690Z,4.91
2019-03-13T01:16:02.891Z,4.90
2019-03-13T01:16:34.093Z,4.89
2019-03-13T01:17:05.294Z,4.89
2019-03-13T01:17:38.785Z,4.89
2019-03-13T01:18:09.407Z,4.87
2019-03-13T01:18:40.704Z,4.85
2019-03-13T01:19:11.904Z,4.82
2019-03-13T01:19:43.107Z,4.83
2019-03-13T01:20:14.302Z,4.80
2019-03-13T01:20:45.508Z,4.81
2019-03-13T01:21:16.725Z,4.79
2019-03-13T01:21:47.908Z,4.78
2019-03-13T01:22:19.163Z,4.78
2019-03-13T01:22:50.370Z,4.78
2019-03-13T01:23:21.567Z,4.79
2019-03-13T01:23:52.767Z,4.77
2019-03-13T01:24:23.960Z,4.76
2019-03-13T01:24:55.152Z,4.73
2019-03-13T01:25:26.340Z,4.72
2019-03-13T01:25:57.547Z,4.68
2019-03-13T01:26:28.815Z,4.67
2019-03-13T01:27:00.002Z,4.63
2019-03-13T01:27:31.202Z,4.58
2019-03-13T01:28:02.400Z,4.55
2019-03-13T01:28:33.608Z,4.54
2019-03-13T01:29:04.882Z,4.52
2019-03-13T01:29:36.527Z,4.49
2019-03-13T01:30:07.733Z,4.48
2019-03-13T01:30:38.945Z,4.46
2019-03-13T01:31:10.187Z,4.45
2019-03-13T01:31:41.399Z,4.42
2019-03-13T01:32:12.604Z,4.40
2019-03-13T01:32:43.818Z,4.37
2019-03-13T01:33:15.013Z,4.37
2019-03-13T01:33:46.255Z,4.37
2019-03-13T01:34:17.480Z,4.35
2019-03-13T01:34:48.684Z,4.35
2019-03-13T01:35:19.907Z,4.33
2019-03-13T01:35:51.108Z,4.32
2019-03-13T01:36:22.311Z,4.31
2019-03-13T01:36:53.546Z,4.31
2019-03-13T01:37:24.748Z,4.31
2019-03-13T01:37:58.207Z,4.29
2019-03-13T01:38:29.412Z,4.30
2019-03-13T01:39:00.624Z,4.28
2019-03-13T01:39:31.826Z,4.30
2019-03-13T01:40:03.024Z,4.32
2019-03-13T01:40:34.217Z,4.30
2019-03-13T01:41:05.418Z,4.30
2019-03-13T01:41:36.611Z,4.30
2019-03-13T01:42:07.815Z,4.31
2019-03-13T01:42:39.060Z,4.32
2019-03-13T01:43:10.296Z,4.32
2019-03-13T01:43:41.512Z,4.30
2019-03-13T01:44:12.730Z,4.29
2019-03-13T01:44:43.984Z,4.30
2019-03-13T01:45:15.163Z,4.28
2019-03-13T01:45:46.363Z,4.26
2019-03-13T01:46:17.568Z,4.25
2019-03-13T01:46:48.777Z,4.27
2019-03-13T01:47:20.025Z,4.26
2019-03-13T01:47:51.280Z,4.25
2019-03-13T01:48:22.479Z,4.27
2019-03-13T01:48:53.672Z,4.26
2019-03-13T01:49:24.874Z,4.24
2019-03-13T01:49:56.067Z,4.25
2019-03-13T01:50:27.266Z,4.24
2019-03-13T01:50:58.463Z,4.24
2019-03-13T01:51:29.673Z,4.24
2019-03-13T01:52:00.875Z,4.25
2019-03-13T01:52:32.409Z,4.26
2019-03-13T01:53:03.682Z,4.26
2019-03-13T01:53:34.892Z,4.27
2019-03-13T01:54:06.107Z,4.26
2019-03-13T01:54:37.314Z,4.25
2019-03-13T01:55:08.555Z,4.24
2019-03-13T01:55:39.764Z,4.24
2019-03-13T01:56:10.971Z,4.25
2019-03-13T01:56:42.184Z,4.24
2019-03-13T01:57:13.452Z,4.24
2019-03-13T01:57:44.654Z,4.23
2019-03-13T01:58:15.864Z,4.22
2019-03-13T01:58:47.056Z,4.23
2019-03-13T01:59:18.266Z,4.21
2019-03-13T01:59:49.470Z,4.20
2019-03-13T02:00:20.684Z,4.22
2019-03-13T02:00:51.870Z,4.24
2019-03-13T02:01:23.124Z,4.23
2019-03-13T02:01:54.339Z,4.23
2019-03-13T02:02:25.545Z,4.24
2019-03-13T02:02:56.812Z,4.23
2019-03-13T02:03:28.027Z,4.21
2019-03-13T02:03:59.228Z,4.21
2019-03-13T02:04:30.438Z,4.20
2019-03-13T02:05:01.656Z,4.20
2019-03-13T02:05:32.849Z,4.17
2019-03-13T02:06:04.065Z,4.17
2019-03-13T02:06:35.275Z,4.17
2019-03-13T02:07:06.489Z,4.16
2019-03-13T02:07:37.685Z,4.14
2019-03-13T02:08:08.898Z,4.15
2019-03-13T02:08:40.097Z,4.14
2019-03-13T02:09:11.303Z,4.13
2019-03-13T02:09:42.517Z,4.14
2019-03-13T02:10:13.758Z,4.13
2019-03-13T02:10:45.011Z,4.12
2019-03-13T02:11:16.215Z,4.13
2019-03-13T02:11:47.430Z,4.13
2019-03-13T02:12:18.643Z,4.14
2019-03-13T02:12:49.844Z,4.12
2019-03-13T02:13:21.050Z,4.12
2019-03-13T02:13:52.303Z,4.11
2019-03-13T02:14:23.547Z,4.10
2019-03-13T02:14:54.747Z,4.10
2019-03-13T02:15:25.950Z,4.09
2019-03-13T02:15:57.153Z,4.07
2019-03-13T02:16:28.347Z,4.08
2019-03-13T02:16:59.555Z,4.08
2019-03-13T02:17:30.822Z,4.08
2019-03-13T02:18:02.025Z,4.09
2019-03-13T02:18:33.218Z,4.09
2019-03-13T02:19:04.414Z,4.08
2019-03-13T02:19:35.614Z,4.09
2019-03-13T02:20:06.812Z,4.09
2019-03-13T02:20:38.027Z,4.09
2019-03-13T02:21:09.228Z,4.10
2019-03-13T02:21:40.424Z,4.10
2019-03-13T02:22:11.636Z,4.12
2019-03-13T02:22:42.872Z,4.12
2019-03-13T02:23:14.070Z,4.11
2019-03-13T02:23:45.275Z,4.13
2019-03-13T02:24:16.515Z,4.12
2019-03-13T02:24:47.730Z,4.11
2019-03-13T02:25:18.932Z,4.11
2019-03-13T02:25:50.145Z,4.11
2019-03-13T02:26:21.362Z,4.11
2019-03-13T02:26:52.760Z,4.12
2019-03-13T02:27:23.958Z,4.14
2019-03-13T02:27:55.174Z,4.14
2019-03-13T02:28:26.372Z,4.14
2019-03-13T02:28:57.574Z,4.15
2019-03-13T02:29:28.805Z,4.14
2019-03-13T02:30:00.021Z,4.14
2019-03-13T02:30:31.243Z,4.13
2019-03-13T02:31:02.452Z,4.15
2019-03-13T02:31:33.638Z,4.15
2019-03-13T02:32:04.846Z,4.16
2019-03-13T02:32:36.054Z,4.11
2019-03-13T02:33:07.313Z,4.11
2019-03-13T02:33:38.526Z,4.12
2019-03-13T02:34:09.728Z,4.13
2019-03-13T02:34:40.967Z,4.14
2019-03-13T02:35:12.243Z,4.12
2019-03-13T02:35:43.452Z,4.11
2019-03-13T02:36:14.650Z,4.13
2019-03-13T02:36:45.861Z,4.13
2019-03-13T02:37:17.120Z,4.16
2019-03-13T02:37:48.333Z,4.17
2019-03-13T02:38:19.534Z,4.16
2019-03-13T02:38:50.725Z,4.16
2019-03-13T02:39:21.952Z,4.15
2019-03-13T02:39:53.154Z,4.14
2019-03-13T02:40:24.373Z,4.11
2019-03-13T02:40:55.589Z,4.09
2019-03-13T02:41:26.799Z,4.06
2019-03-13T02:41:58.024Z,4.04
2019-03-13T02:42:29.302Z,4.01
2019-03-13T02:43:00.495Z,4.00
2019-03-13T02:43:31.702Z,4.00
2019-03-13T02:44:02.939Z,4.00
2019-03-13T02:44:34.213Z,3.98
2019-03-13T02:45:05.470Z,3.99
2019-03-13T02:45:36.727Z,3.97
2019-03-13T02:46:07.943Z,3.98
2019-03-13T02:46:39.125Z,3.97
2019-03-13T02:47:10.344Z,3.95
2019-03-13T02:47:41.555Z,3.94
2019-03-13T02:48:12.783Z,3.94
2019-03-13T02:48:44.008Z,3.95
2019-03-13T02:49:15.192Z,3.96
2019-03-13T02:49:46.392Z,3.96
2019-03-13T02:50:17.633Z,3.97
2019-03-13T02:50:48.843Z,3.98
2019-03-13T02:51:20.059Z,3.99
2019-03-13T02:51:51.447Z,3.97
2019-03-13T02:52:22.656Z,3.97
2019-03-13T02:52:53.847Z,3.97
2019-03-13T02:53:25.056Z,3.96
2019-03-13T02:53:56.263Z,3.96
2019-03-13T02:54:28.583Z,3.92
2019-03-13T02:54:59.770Z,3.91
2019-03-13T02:55:30.985Z,3.88
2019-03-13T02:56:02.191Z,3.86
2019-03-13T02:56:33.418Z,3.83
2019-03-13T02:57:04.603Z,3.81
2019-03-13T02:57:35.804Z,3.78
2019-03-13T02:58:07.045Z,3.77
2019-03-13T02:58:38.271Z,3.76
2019-03-13T02:59:09.456Z,3.73
2019-03-13T02:59:40.662Z,3.70
2019-03-13T03:00:11.889Z,3.69
2019-03-13T03:00:43.094Z,3.68
2019-03-13T03:01:14.292Z,3.66
2019-03-13T03:01:45.537Z,3.63
2019-03-13T03:02:16.742Z,3.61
2019-03-13T03:02:47.993Z,3.61
2019-03-13T03:03:19.220Z,3.60
2019-03-13T03:03:50.472Z,3.60
2019-03-13T03:04:21.708Z,3.60
2019-03-13T03:04:52.939Z,3.62
2019-03-13T03:05:24.149Z,3.61
2019-03-13T03:05:55.362Z,3.54
2019-03-13T03:06:26.604Z,3.45
2019-03-13T03:06:57.833Z,3.46
2019-03-13T03:07:29.026Z,3.50
2019-03-13T03:08:00.232Z,3.52
2019-03-13T03:08:31.422Z,3.54
2019-03-13T03:09:02.629Z,3.57
2019-03-13T03:09:33.866Z,3.58
2019-03-13T03:10:05.089Z,3.61
2019-03-13T03:10:36.291Z,3.60
2019-03-13T03:11:07.479Z,3.63
2019-03-13T03:11:38.733Z,3.62
2019-03-13T03:12:09.928Z,3.61
2019-03-13T03:12:41.126Z,3.58
2019-03-13T03:13:12.323Z,3.53
2019-03-13T03:13:43.539Z,3.49
2019-03-13T03:14:14.751Z,3.47
2019-03-13T03:14:46.143Z,3.46
2019-03-13T03:15:17.374Z,3.45
2019-03-13T03:15:48.580Z,3.44
2019-03-13T03:16:19.827Z,3.42
2019-03-13T03:16:51.032Z,3.38
2019-03-13T03:17:22.229Z,3.36
2019-03-13T03:17:53.472Z,3.38
2019-03-13T03:18:24.678Z,3.39
2019-03-13T03:18:55.882Z,3.39
2019-03-13T03:19:27.085Z,3.40
2019-03-13T03:19:58.306Z,3.40
2019-03-13T03:20:29.561Z,3.39
2019-03-13T03:21:00.777Z,3.41
2019-03-13T03:21:31.955Z,3.41
2019-03-13T03:22:03.161Z,3.43
2019-03-13T03:22:34.391Z,3.42
2019-03-13T03:23:05.688Z,3.42
2019-03-13T03:23:36.882Z,3.44
2019-03-13T03:24:08.086Z,3.42
2019-03-13T03:24:39.327Z,3.42
2019-03-13T03:25:10.528Z,3.43
2019-03-13T03:25:41.732Z,3.45
2019-03-13T03:26:12.959Z,3.47
2019-03-13T03:26:44.139Z,3.47
2019-03-13T03:27:15.351Z,3.49
2019-03-13T03:27:46.574Z,3.49
2019-03-13T03:28:17.824Z,3.51
2019-03-13T03:28:49.023Z,3.52
2019-03-13T03:29:20.307Z,3.57
2019-03-13T03:29:51.519Z,3.59
2019-03-13T03:30:23.021Z,3.62
2019-03-13T03:30:54.402Z,3.61
2019-03-13T03:31:25.624Z,3.61
2019-03-13T03:31:56.842Z,3.62
2019-03-13T03:32:28.019Z,3.65
2019-03-13T03:32:59.237Z,3.65
2019-03-13T03:33:30.449Z,3.61
2019-03-13T03:34:01.678Z,3.58
2019-03-13T03:34:32.883Z,3.55
2019-03-13T03:35:04.089Z,3.54
2019-03-13T03:35:35.312Z,3.56
2019-03-13T03:36:06.548Z,3.60
2019-03-13T03:36:37.769Z,3.65
2019-03-13T03:37:08.963Z,3.66
2019-03-13T03:37:40.196Z,3.65
2019-03-13T03:38:11.412Z,3.67
2019-03-13T03:38:42.617Z,3.70
2019-03-13T03:39:13.855Z,3.70
2019-03-13T03:39:45.058Z,3.66
2019-03-13T03:40:21.331Z,3.60
2019-03-13T03:40:49.393Z,3.56
2019-03-13T03:41:20.598Z,3.48
2019-03-13T03:41:51.796Z,3.39
2019-03-13T03:42:22.997Z,3.35
2019-03-13T03:42:54.261Z,3.30
2019-03-13T03:43:39.344Z,3.30
2019-03-13T03:43:58.444Z,3.31
2019-03-13T03:44:29.700Z,3.34
2019-03-13T03:45:00.867Z,3.37
2019-03-13T03:45:32.091Z,3.37
2019-03-13T03:46:03.307Z,3.37
2019-03-13T03:46:34.490Z,3.37
2019-03-13T03:47:05.690Z,3.37
2019-03-13T03:47:36.909Z,3.32
2019-03-13T03:48:08.129Z,3.21
2019-03-13T03:48:39.311Z,3.21
2019-03-13T03:49:10.513Z,3.24
2019-03-13T03:49:41.758Z,3.25
2019-03-13T03:50:12.974Z,3.27
2019-03-13T03:50:44.160Z,3.26
2019-03-13T03:51:15.355Z,3.24
2019-03-13T03:51:46.565Z,3.21
2019-03-13T03:52:17.769Z,3.17
2019-03-13T03:52:48.978Z,3.12
2019-03-13T03:53:20.230Z,3.09
2019-03-13T03:53:51.470Z,3.08
2019-03-13T03:54:22.667Z,3.08
2019-03-13T03:54:53.865Z,3.08
2019-03-13T03:55:25.170Z,3.11
2019-03-13T03:55:56.381Z,3.13
2019-03-13T03:56:27.585Z,3.15
2019-03-13T03:56:58.788Z,3.16
2019-03-13T03:57:30.058Z,3.18
2019-03-13T03:58:01.286Z,3.19
2019-03-13T03:58:32.546Z,3.24
2019-03-13T03:59:03.744Z,3.26
2019-03-13T03:59:34.945Z,3.29
2019-03-13T04:00:06.169Z,3.29
2019-03-13T04:00:37.375Z,3.35
2019-03-13T04:01:08.572Z,3.39
2019-03-13T04:01:39.779Z,3.44
2019-03-13T04:02:10.989Z,3.48
2019-03-13T04:02:42.272Z,3.54
2019-03-13T04:03:13.486Z,3.55
2019-03-13T04:03:44.714Z,3.54
2019-03-13T04:04:15.926Z,3.53
2019-03-13T04:04:47.226Z,3.56
2019-03-13T04:05:18.531Z,3.58
2019-03-13T04:05:49.725Z,3.58
2019-03-13T04:06:20.921Z,3.60
2019-03-13T04:06:52.221Z,3.61
2019-03-13T04:07:23.418Z,3.62
2019-03-13T04:07:54.649Z,3.61
2019-03-13T04:08:25.856Z,3.61
2019-03-13T04:08:57.068Z,3.63
2019-03-13T04:09:28.304Z,3.66
2019-03-13T04:09:59.503Z,3.66
2019-03-13T04:10:30.772Z,3.65
2019-03-13T04:11:01.990Z,3.64
2019-03-13T04:11:33.196Z,3.60
2019-03-13T04:12:04.422Z,3.56
2019-03-13T04:12:35.631Z,3.50
2019-03-13T04:13:06.833Z,3.43
2019-03-13T04:13:38.047Z,3.40
2019-03-13T04:14:09.262Z,3.40
2019-03-13T04:14:40.467Z,3.39
2019-03-13T04:15:11.679Z,3.36
2019-03-13T04:15:43.029Z,3.33
2019-03-13T04:16:14.241Z,3.38
2019-03-13T04:16:45.445Z,3.41
2019-03-13T04:17:16.641Z,3.47
2019-03-13T04:17:47.854Z,3.50
2019-03-13T04:18:19.054Z,3.56
2019-03-13T04:18:50.251Z,3.55
2019-03-13T04:19:21.533Z,3.56
2019-03-13T04:19:52.741Z,3.58
2019-03-13T04:20:23.940Z,3.59
2019-03-13T04:20:55.177Z,3.60
2019-03-13T04:21:26.403Z,3.64
2019-03-13T04:21:57.615Z,3.65
2019-03-13T04:22:28.833Z,3.67
2019-03-13T04:23:00.043Z,3.68
2019-03-13T04:23:31.260Z,3.71
2019-03-13T04:24:02.455Z,3.69
2019-03-13T04:24:33.698Z,3.70
2019-03-13T04:25:04.917Z,3.70
2019-03-13T04:25:36.104Z,3.70
2019-03-13T04:26:07.307Z,3.70
2019-03-13T04:26:38.925Z,3.68
2019-03-13T04:27:10.141Z,3.67
2019-03-13T04:27:42.330Z,3.67
2019-03-13T04:28:13.603Z,3.67
2019-03-13T04:28:44.807Z,3.66
2019-03-13T04:29:16.009Z,3.66
2019-03-13T04:29:47.240Z,3.65
2019-03-13T04:30:18.461Z,3.66
2019-03-13T04:30:49.710Z,3.67
2019-03-13T04:31:20.920Z,3.70
2019-03-13T04:31:52.128Z,3.70
2019-03-13T04:32:23.343Z,3.69
2019-03-13T04:32:54.531Z,3.73
2019-03-13T04:33:28.208Z,3.77
2019-03-13T04:33:58.683Z,3.79
2019-03-13T04:34:29.884Z,3.81
2019-03-13T04:35:01.086Z,3.86
2019-03-13T04:35:32.277Z,3.88
2019-03-13T04:36:03.629Z,3.97
2019-03-13T04:36:34.831Z,4.04
2019-03-13T04:37:06.057Z,4.14
2019-03-13T04:37:37.253Z,4.24
2019-03-13T04:38:08.454Z,4.26
2019-03-13T04:38:39.649Z,4.30
2019-03-13T04:39:10.854Z,4.33
2019-03-13T04:39:42.059Z,4.36
2019-03-13T04:40:13.273Z,4.35
2019-03-13T04:40:44.485Z,4.36
2019-03-13T04:41:15.720Z,4.36
2019-03-13T04:41:46.917Z,4.34
2019-03-13T04:42:18.124Z,4.30
2019-03-13T04:42:49.443Z,4.21
2019-03-13T04:43:20.646Z,4.17
2019-03-13T04:43:51.859Z,4.11
2019-03-13T04:44:23.142Z,4.07
2019-03-13T04:44:54.367Z,3.97
2019-03-13T04:45:25.572Z,3.91
2019-03-13T04:46:02.889Z,3.82
2019-03-13T04:46:34.056Z,3.76
2019-03-13T04:47:05.227Z,3.72
2019-03-13T04:47:36.416Z,3.67
2019-03-13T04:48:07.553Z,3.61
2019-03-13T04:48:38.780Z,3.56
2019-03-13T04:49:10.054Z,3.55
2019-03-13T04:49:41.222Z,3.54
2019-03-13T04:50:12.373Z,3.54
2019-03-13T04:50:43.547Z,3.54
2019-03-13T04:51:14.713Z,3.53
2019-03-13T04:51:45.875Z,3.52
2019-03-13T04:52:17.032Z,3.49
2019-03-13T04:52:48.192Z,3.51
2019-03-13T04:53:19.361Z,3.53
2019-03-13T04:53:50.589Z,3.50
2019-03-13T04:54:21.760Z,3.49
2019-03-13T04:54:52.919Z,3.49
2019-03-13T04:55:24.072Z,3.47
2019-03-13T04:55:55.225Z,3.44
2019-03-13T04:56:26.403Z,3.43
2019-03-13T04:56:57.575Z,3.41
2019-03-13T04:57:28.742Z,3.42
2019-03-13T04:57:59.946Z,3.40
2019-03-13T04:58:31.103Z,3.39
2019-03-13T04:59:02.263Z,3.38
2019-03-13T04:59:33.427Z,3.37
2019-03-13T05:00:04.603Z,3.40
2019-03-13T05:00:35.761Z,3.42
2019-03-13T05:01:06.928Z,3.42
2019-03-13T05:01:38.101Z,3.40
2019-03-13T05:02:09.275Z,3.41
2019-03-13T05:02:40.448Z,3.41
2019-03-13T05:03:11.667Z,3.41
2019-03-13T05:03:42.828Z,3.43
2019-03-13T05:04:13.991Z,3.40
2019-03-13T05:04:45.147Z,3.37
2019-03-13T05:05:16.305Z,3.33
2019-03-13T05:05:47.484Z,3.31
2019-03-13T05:06:18.656Z,3.31
2019-03-13T05:06:49.871Z,3.31
2019-03-13T05:07:21.044Z,3.31
2019-03-13T05:07:52.218Z,3.32
2019-03-13T05:08:23.377Z,3.30
2019-03-13T05:08:54.547Z,3.30
2019-03-13T05:09:25.709Z,3.31
2019-03-13T05:09:56.882Z,3.29
2019-03-13T05:10:28.078Z,3.28
2019-03-13T05:10:59.270Z,3.28
2019-03-13T05:11:30.446Z,3.28
2019-03-13T05:12:01.609Z,3.27
2019-03-13T05:12:32.769Z,3.25
2019-03-13T05:13:04.085Z,3.23
2019-03-13T05:13:35.306Z,3.23
2019-03-13T05:14:06.458Z,3.26
2019-03-13T05:14:37.637Z,3.31
2019-03-13T05:15:08.823Z,3.40
2019-03-13T05:15:39.992Z,3.47
2019-03-13T05:16:11.155Z,3.58
2019-03-13T05:16:42.328Z,3.59
2019-03-13T05:17:13.496Z,3.60
2019-03-13T05:17:44.676Z,3.61
2019-03-13T05:18:15.858Z,3.62
2019-03-13T05:18:47.023Z,3.63
2019-03-13T05:19:18.193Z,3.64
2019-03-13T05:19:49.347Z,3.66
2019-03-13T05:20:20.513Z,3.65
2019-03-13T05:20:51.686Z,3.70
2019-03-13T05:21:22.855Z,3.71
2019-03-13T05:21:54.010Z,3.72
2019-03-13T05:22:25.160Z,3.69
2019-03-13T05:22:56.343Z,3.68
2019-03-13T05:23:27.562Z,3.64
2019-03-13T05:23:58.714Z,3.58
2019-03-13T05:24:29.862Z,3.54
2019-03-13T05:25:01.017Z,3.54
2019-03-13T05:25:32.187Z,3.55
2019-03-13T05:26:03.349Z,3.54
2019-03-13T05:26:34.509Z,3.54
2019-03-13T05:27:05.669Z,3.56
2019-03-13T05:27:36.837Z,3.63
2019-03-13T05:28:07.995Z,3.65
2019-03-13T05:28:39.197Z,3.71
2019-03-13T05:29:10.375Z,3.77
2019-03-13T05:29:41.538Z,3.80
2019-03-13T05:30:12.700Z,3.83
2019-03-13T05:30:43.870Z,3.81
2019-03-13T05:31:15.037Z,3.80
2019-03-13T05:31:46.793Z,3.77
2019-03-13T05:32:17.944Z,3.68
2019-03-13T05:32:49.169Z,3.50
2019-03-13T05:33:20.331Z,3.42
2019-03-13T05:33:51.485Z,3.36
2019-03-13T05:34:22.649Z,3.38
2019-03-13T05:34:53.844Z,3.27
2019-03-13T05:35:25.025Z,3.22
2019-03-13T05:35:56.203Z,3.20
2019-03-13T05:36:27.332Z,3.35
2019-03-13T05:36:58.527Z,3.46
2019-03-13T05:37:29.677Z,3.46
2019-03-13T05:38:00.862Z,3.49
2019-03-13T05:38:32.017Z,3.52
2019-03-13T05:39:03.194Z,3.59
2019-03-13T05:39:34.356Z,3.62
2019-03-13T05:40:05.548Z,3.60
2019-03-13T05:40:37.093Z,3.69
2019-03-13T05:41:08.296Z,3.68
2019-03-13T05:41:39.450Z,3.69
2019-03-13T05:42:10.612Z,3.71
2019-03-13T05:42:41.796Z,3.72
2019-03-13T05:43:12.993Z,3.69
2019-03-13T05:43:44.177Z,3.65
2019-03-13T05:44:15.335Z,3.65
2019-03-13T05:44:46.486Z,3.60
2019-03-13T05:45:17.670Z,3.49
2019-03-13T05:45:48.866Z,3.47
2019-03-13T05:46:19.988Z,3.45
2019-03-13T05:46:51.179Z,3.48
2019-03-13T05:47:22.352Z,3.49
2019-03-13T05:47:53.512Z,3.49
2019-03-13T05:48:24.685Z,3.49
2019-03-13T05:48:55.865Z,3.52
2019-03-13T05:49:27.024Z,3.55
2019-03-13T05:49:58.191Z,3.58
2019-03-13T05:50:31.603Z,3.61
2019-03-13T05:51:02.244Z,3.64
2019-03-13T05:51:33.407Z,3.67
2019-03-13T05:52:04.610Z,3.69
2019-03-13T05:52:35.776Z,3.81
2019-03-13T05:53:06.977Z,3.91
2019-03-13T05:53:38.130Z,3.96
2019-03-13T05:54:09.288Z,3.97
2019-03-13T05:54:40.452Z,3.99
2019-03-13T05:55:11.619Z,3.98
2019-03-13T05:55:42.819Z,3.99
2019-03-13T05:56:14.067Z,3.98
2019-03-13T05:56:45.202Z,4.02
2019-03-13T05:57:16.356Z,4.00
2019-03-13T05:57:47.514Z,4.00
2019-03-13T05:58:18.719Z,4.02
2019-03-13T05:58:49.874Z,4.03
2019-03-13T05:59:21.027Z,4.07
2019-03-13T05:59:52.198Z,4.10
2019-03-13T06:00:23.357Z,4.17
2019-03-13T06:00:54.553Z,4.17
2019-03-13T06:01:25.767Z,4.21
2019-03-13T06:01:56.924Z,4.20
2019-03-13T06:02:28.088Z,4.25
2019-03-13T06:02:59.242Z,4.30
2019-03-13T06:03:30.476Z,4.35
2019-03-13T06:04:01.694Z,4.44
2019-03-13T06:04:32.855Z,4.53
2019-03-13T06:05:04.020Z,4.56
2019-03-13T06:05:35.184Z,4.59
2019-03-13T06:06:06.334Z,4.72
2019-03-13T06:06:37.495Z,4.78
2019-03-13T06:07:08.693Z,4.84
2019-03-13T06:07:39.853Z,4.84
2019-03-13T06:08:11.012Z,4.87
2019-03-13T06:08:42.235Z,4.87
2019-03-13T06:09:13.403Z,4.84
2019-03-13T06:09:44.590Z,4.82
2019-03-13T06:10:15.772Z,4.76
2019-03-13T06:10:46.946Z,4.71
2019-03-13T06:11:18.175Z,4.73
2019-03-13T06:11:49.332Z,4.71
2019-03-13T06:12:20.498Z,4.76
2019-03-13T06:12:51.694Z,4.79
2019-03-13T06:13:22.934Z,4.84
2019-03-13T06:13:54.087Z,4.86
2019-03-13T06:14:25.267Z,4.82
2019-03-13T06:14:56.424Z,4.74
2019-03-13T06:15:27.568Z,4.75
2019-03-13T06:15:58.738Z,4.76
2019-03-13T06:16:29.893Z,4.85
2019-03-13T06:17:01.061Z,4.88
2019-03-13T06:17:32.234Z,4.84
2019-03-13T06:18:03.433Z,4.92
2019-03-13T06:18:34.594Z,5.05
2019-03-13T06:19:05.743Z,5.07
2019-03-13T06:19:36.963Z,5.19
2019-03-13T06:20:10.606Z,5.25
2019-03-13T06:20:41.012Z,5.30
2019-03-13T06:21:12.178Z,5.39
2019-03-13T06:21:43.357Z,5.47
2019-03-13T06:22:14.509Z,5.56
2019-03-13T06:22:45.672Z,5.66
2019-03-13T06:23:16.889Z,5.67
2019-03-13T06:23:48.238Z,5.71
2019-03-13T06:24:19.438Z,5.74
2019-03-13T06:24:50.597Z,5.72
2019-03-13T06:25:21.769Z,5.66
2019-03-13T06:25:52.921Z,5.60
2019-03-13T06:26:24.077Z,5.59
2019-03-13T06:26:55.244Z,5.56
2019-03-13T06:27:26.397Z,5.55
2019-03-13T06:27:57.549Z,5.52
2019-03-13T06:28:28.752Z,5.47
2019-03-13T06:28:59.941Z,5.39
2019-03-13T06:29:31.927Z,5.33
2019-03-13T06:30:03.222Z,5.37
2019-03-13T06:30:34.376Z,5.45
2019-03-13T06:31:05.555Z,5.58
2019-03-13T06:31:36.703Z,5.69
2019-03-13T06:32:07.862Z,5.77
2019-03-13T06:32:39.074Z,5.87
2019-03-13T06:33:10.219Z,5.94
2019-03-13T06:33:41.398Z,6.02
2019-03-13T06:34:12.552Z,6.07
2019-03-13T06:34:43.708Z,6.09
2019-03-13T06:35:14.855Z,6.03
2019-03-13T06:35:46.015Z,5.98
2019-03-13T06:36:17.185Z,5.95
2019-03-13T06:36:48.393Z,5.89
2019-03-13T06:37:19.544Z,5.84
2019-03-13T06:37:50.715Z,5.82
2019-03-13T06:38:21.894Z,5.84
2019-03-13T06:38:53.052Z,5.81
2019-03-13T06:39:24.243Z,5.88
2019-03-13T06:39:55.367Z,5.93
2019-03-13T06:40:26.535Z,5.93
2019-03-13T06:40:57.697Z,5.96
2019-03-13T06:41:28.891Z,6.00
2019-03-13T06:42:00.050Z,5.99
2019-03-13T06:42:31.231Z,5.99
2019-03-13T06:43:02.395Z,6.03
2019-03-13T06:43:33.553Z,6.08
2019-03-13T06:44:04.708Z,6.07
2019-03-13T06:44:35.878Z,6.10
2019-03-13T06:45:07.037Z,6.13
2019-03-13T06:45:38.205Z,6.19
2019-03-13T06:46:09.418Z,6.26
2019-03-13T06:46:40.617Z,6.32
2019-03-13T06:47:11.789Z,6.38
2019-03-13T06:47:42.930Z,6.44
2019-03-13T06:48:14.128Z,6.45
2019-03-13T06:48:45.289Z,6.46
2019-03-13T06:49:16.447Z,6.49
2019-03-13T06:49:47.615Z,6.49
2019-03-13T06:50:18.777Z,6.45
2019-03-13T06:50:49.952Z,6.45
2019-03-13T06:51:21.103Z,6.46
2019-03-13T06:51:52.274Z,6.43
2019-03-13T06:52:23.447Z,6.44
2019-03-13T06:52:54.608Z,6.45
2019-03-13T06:53:25.778Z,6.47
2019-03-13T06:53:56.954Z,6.52
2019-03-13T06:54:28.087Z,6.51
2019-03-13T06:54:59.263Z,6.54
2019-03-13T06:55:30.506Z,6.55